Time;durP1;ratioP1;P1;durP2;ratioP2;P2;SDS_P1;SDS_P2;PMS_P1;PMS_P2;Temp;Humidity;BMP_temperature;BMP_pressure;BME280_temperature;BME280_humidity;BME280_pressure;Samples;Min_cycle;Max_cycle;Signal;HPM_P1;HPM_P2
2022/08/06 00:01:41;;;;;;;;;;;13.80;99.90;;;;;;5060515;28;19923;-85
2022/08/06 00:04:06;;;;;;;;;;;13.70;99.90;;;;;;5078591;28;20004;-84
2022/08/06 00:06:32;;;;;;;;;;;13.70;99.90;;;;;;5077545;28;19965;-86
2022/08/06 00:08:57;;;;;;;;;;;13.60;99.90;;;;;;5069237;28;19915;-84
2022/08/06 00:11:23;;;;;;;;;;;13.60;99.90;;;;;;5081290;28;19968;-87
2022/08/06 00:13:49;;;;;;;;;;;13.60;99.90;;;;;;5096872;28;19968;-84
2022/08/06 00:16:14;;;;;;;;;;;13.50;99.90;;;;;;5097965;28;19915;-84
2022/08/06 00:18:40;;;;;;;;;;;13.50;99.90;;;;;;5107371;27;20037;-84
2022/08/06 00:21:06;;;;;;;;;;;13.50;99.90;;;;;;5085759;28;20327;-84
2022/08/06 00:23:31;;;;;;;;;;;13.50;99.90;;;;;;5078908;28;19942;-85
2022/08/06 00:25:57;;;;;;;;;;;13.40;99.90;;;;;;5091465;28;20258;-84
2022/08/06 00:28:23;;;;;;;;;;;13.40;99.90;;;;;;5121985;27;19941;-84
2022/08/06 00:30:49;;;;;;;;;;;13.30;99.90;;;;;;5129744;27;19918;-84
2022/08/06 00:33:14;;;;;;;;;;;13.30;99.90;;;;;;5087726;28;20417;-85
2022/08/06 00:35:40;;;;;;;;;;;13.20;99.90;;;;;;5097746;28;19916;-84
2022/08/06 00:38:06;;;;;;;;;;;13.10;99.90;;;;;;5098286;28;19921;-84
2022/08/06 00:40:32;;;;;;;;;;;13.00;99.90;;;;;;5082281;28;19927;-84
2022/08/06 00:42:58;;;;;;;;;;;13.00;99.90;;;;;;5090563;28;19923;-84
2022/08/06 00:45:24;;;;;;;;;;;12.90;99.90;;;;;;5111294;28;19916;-84
2022/08/06 00:47:52;;;;;;;;;;;12.80;99.90;;;;;;5115293;27;19931;-85
2022/08/06 00:50:18;;;;;;;;;;;12.80;99.90;;;;;;5109899;28;19923;-84
2022/08/06 00:52:45;;;;;;;;;;;12.70;99.90;;;;;;5087446;28;20273;-84
2022/08/06 00:55:11;;;;;;;;;;;12.60;99.90;;;;;;5081260;28;19926;-84
2022/08/06 00:57:37;;;;;;;;;;;12.50;99.90;;;;;;5095359;28;19919;-84
2022/08/06 01:00:03;;;;;;;;;;;12.40;99.90;;;;;;5131898;27;19966;-84
2022/08/06 01:02:29;;;;;;;;;;;12.40;99.90;;;;;;5078679;28;19935;-84
2022/08/06 01:04:55;;;;;;;;;;;12.30;99.90;;;;;;5095135;28;19920;-84
2022/08/06 01:07:20;;;;;;;;;;;12.20;99.90;;;;;;5044275;28;20010;-84
2022/08/06 01:09:46;;;;;;;;;;;12.30;99.90;;;;;;5043618;28;19916;-84
2022/08/06 01:12:11;;;;;;;;;;;12.20;99.90;;;;;;5097587;28;19926;-84
2022/08/06 01:14:37;;;;;;;;;;;12.10;99.90;;;;;;5078909;28;19969;-84
2022/08/06 01:17:04;;;;;;;;;;;12.10;99.90;;;;;;5077178;28;20368;-84
2022/08/06 01:19:51;;;;;;;;;;;12.00;99.90;;;;;;5077266;28;19916;-84
2022/08/06 01:22:39;;;;;;;;;;;11.90;99.90;;;;;;5085071;28;20318;-84
2022/08/06 01:25:11;;;;;;;;;;;11.80;99.90;;;;;;5093874;28;19922;-85
2022/08/06 01:27:40;;;;;;;;;;;11.80;99.90;;;;;;5096793;28;19998;-85
2022/08/06 01:30:17;;;;;;;;;;;11.80;99.90;;;;;;5097533;28;19923;-84
2022/08/06 01:33:00;;;;;;;;;;;11.70;99.90;;;;;;5092246;28;20014;-84
2022/08/06 01:35:29;;;;;;;;;;;11.70;99.90;;;;;;5077060;28;19959;-84
2022/08/06 01:37:57;;;;;;;;;;;11.70;99.90;;;;;;5109384;28;19920;-84
2022/08/06 01:40:25;;;;;;;;;;;11.60;99.90;;;;;;5076931;28;20308;-84
2022/08/06 01:42:53;;;;;;;;;;;11.50;99.90;;;;;;5076169;28;19915;-85
2022/08/06 01:45:19;;;;;;;;;;;11.50;99.90;;;;;;5059573;28;19915;-84
2022/08/06 01:47:47;;;;;;;;;;;11.50;99.90;;;;;;5059433;28;19965;-84
2022/08/06 01:50:16;;;;;;;;;;;11.40;99.90;;;;;;5076543;28;19916;-84
2022/08/06 01:52:42;;;;;;;;;;;11.40;99.90;;;;;;5116666;27;19926;-84
2022/08/06 01:55:09;;;;;;;;;;;11.40;99.90;;;;;;5077224;28;19916;-84
2022/08/06 01:57:36;;;;;;;;;;;11.30;99.90;;;;;;5111632;28;19916;-84
2022/08/06 02:00:03;;;;;;;;;;;11.30;99.90;;;;;;5096106;28;20013;-84
2022/08/06 02:02:30;;;;;;;;;;;11.20;99.90;;;;;;5096622;28;19920;-84
2022/08/06 02:04:57;;;;;;;;;;;11.20;99.90;;;;;;5093755;28;20261;-84
2022/08/06 02:07:24;;;;;;;;;;;11.20;99.90;;;;;;5096695;28;19915;-84
2022/08/06 02:09:50;;;;;;;;;;;11.10;99.90;;;;;;5096002;28;20235;-84
2022/08/06 02:12:24;;;;;;;;;;;11.10;99.90;;;;;;5079580;28;19916;-84
2022/08/06 02:15:02;;;;;;;;;;;11.10;99.90;;;;;;5101560;28;19916;-84
2022/08/06 02:17:29;;;;;;;;;;;11.10;99.90;;;;;;5130210;27;19915;-84
2022/08/06 02:20:00;;;;;;;;;;;11.20;99.90;;;;;;5078879;28;19916;-84
2022/08/06 02:22:30;;;;;;;;;;;11.10;99.90;;;;;;5103358;28;19958;-84
2022/08/06 02:25:00;;;;;;;;;;;11.00;99.90;;;;;;5108885;27;20001;-84
2022/08/06 02:27:26;;;;;;;;;;;11.00;99.90;;;;;;5092836;28;20368;-84
2022/08/06 02:29:53;;;;;;;;;;;11.00;99.90;;;;;;5095659;28;19966;-84
2022/08/06 02:32:19;;;;;;;;;;;11.00;99.90;;;;;;5094011;28;19916;-84
2022/08/06 02:34:45;;;;;;;;;;;10.90;99.90;;;;;;5062095;28;19984;-87
2022/08/06 02:37:13;;;;;;;;;;;10.90;99.90;;;;;;5095429;28;19922;-84
2022/08/06 02:39:46;;;;;;;;;;;10.80;99.90;;;;;;5112212;28;19915;-84
2022/08/06 02:42:20;;;;;;;;;;;10.80;99.90;;;;;;5122820;27;19919;-84
2022/08/06 02:44:52;;;;;;;;;;;10.80;99.90;;;;;;5112655;28;20310;-87
2022/08/06 02:47:21;;;;;;;;;;;10.70;99.90;;;;;;5095549;28;20319;-84
2022/08/06 02:49:50;;;;;;;;;;;10.60;99.90;;;;;;5112086;28;20336;-86
2022/08/06 02:52:30;;;;;;;;;;;10.60;99.90;;;;;;5073211;27;19973;-85
2022/08/06 02:54:58;;;;;;;;;;;10.60;99.90;;;;;;5113672;27;19922;-85
2022/08/06 02:57:37;;;;;;;;;;;10.60;99.90;;;;;;5092533;28;19923;-85
2022/08/06 03:00:05;;;;;;;;;;;10.50;99.90;;;;;;5094874;28;19915;-86
2022/08/06 03:02:32;;;;;;;;;;;10.50;99.90;;;;;;5110688;28;19916;-84
2022/08/06 03:04:59;;;;;;;;;;;10.50;99.90;;;;;;5126954;27;19916;-84
2022/08/06 03:07:27;;;;;;;;;;;10.40;99.90;;;;;;5094857;28;19947;-84
2022/08/06 03:09:53;;;;;;;;;;;10.40;99.90;;;;;;5078205;28;19916;-85
2022/08/06 03:12:19;;;;;;;;;;;10.40;99.90;;;;;;5090886;28;20238;-84
2022/08/06 03:14:46;;;;;;;;;;;10.40;99.90;;;;;;5090616;28;19965;-84
2022/08/06 03:17:12;;;;;;;;;;;10.40;99.90;;;;;;5094909;28;19924;-84
2022/08/06 03:19:38;;;;;;;;;;;10.30;99.90;;;;;;5110947;28;19955;-84
2022/08/06 03:22:05;;;;;;;;;;;10.30;99.90;;;;;;5080361;28;20349;-84
2022/08/06 03:24:34;;;;;;;;;;;10.30;99.90;;;;;;5108946;28;19915;-84
2022/08/06 03:26:59;;;;;;;;;;;10.30;99.90;;;;;;5098300;28;19915;-85
2022/08/06 03:29:26;;;;;;;;;;;10.30;99.90;;;;;;5107070;28;20273;-84
2022/08/06 03:31:52;;;;;;;;;;;10.20;99.90;;;;;;5093224;28;20341;-88
2022/08/06 03:34:18;;;;;;;;;;;10.20;99.90;;;;;;5095478;28;19922;-84
2022/08/06 03:36:44;;;;;;;;;;;10.20;99.90;;;;;;5111947;28;20010;-84
2022/08/06 03:39:11;;;;;;;;;;;10.20;99.90;;;;;;5110999;28;20276;-84
2022/08/06 03:41:38;;;;;;;;;;;10.10;99.90;;;;;;5089128;28;19966;-84
2022/08/06 03:44:03;;;;;;;;;;;10.10;99.90;;;;;;5091817;28;19923;-84
2022/08/06 03:46:31;;;;;;;;;;;10.10;99.90;;;;;;5074900;28;19916;-84
2022/08/06 03:48:58;;;;;;;;;;;10.10;99.90;;;;;;5093403;28;19922;-85
2022/08/06 03:51:26;;;;;;;;;;;10.10;99.90;;;;;;5092783;28;20349;-85
2022/08/06 03:53:52;;;;;;;;;;;10.10;99.90;;;;;;5130351;28;20265;-84
2022/08/06 03:56:22;;;;;;;;;;;10.00;99.90;;;;;;5115032;28;19955;-84
2022/08/06 03:58:49;;;;;;;;;;;10.00;99.90;;;;;;5115036;28;19923;-84
2022/08/06 04:01:17;;;;;;;;;;;10.00;99.90;;;;;;5082604;28;19994;-84
2022/08/06 04:03:44;;;;;;;;;;;9.90;99.90;;;;;;5129234;28;20375;-84
2022/08/06 04:06:11;;;;;;;;;;;9.90;99.90;;;;;;5110005;28;19920;-84
2022/08/06 04:08:38;;;;;;;;;;;10.20;99.90;;;;;;5112120;28;19922;-84
2022/08/06 04:11:04;;;;;;;;;;;9.90;99.90;;;;;;5107220;28;19946;-85
2022/08/06 04:13:30;;;;;;;;;;;9.80;99.90;;;;;;5091660;28;19982;-85
2022/08/06 04:15:56;;;;;;;;;;;9.90;99.90;;;;;;5074778;28;19963;-84
2022/08/06 04:18:26;;;;;;;;;;;10.00;99.90;;;;;;5094318;28;19920;-84
2022/08/06 04:20:54;;;;;;;;;;;9.80;99.90;;;;;;5078470;28;19970;-84
2022/08/06 04:23:19;;;;;;;;;;;9.80;99.90;;;;;;5087411;27;19920;-85
2022/08/06 04:25:49;;;;;;;;;;;9.80;99.90;;;;;;5118712;27;19965;-84
2022/08/06 04:28:16;;;;;;;;;;;9.80;99.90;;;;;;5116982;27;19970;-84
2022/08/06 04:30:42;;;;;;;;;;;9.80;99.90;;;;;;5132245;27;19924;-84
2022/08/06 04:33:10;;;;;;;;;;;9.80;99.90;;;;;;5097856;28;20003;-85
2022/08/06 04:35:37;;;;;;;;;;;9.80;99.90;;;;;;5094999;28;19949;-84
2022/08/06 04:38:03;;;;;;;;;;;9.70;99.90;;;;;;5123122;27;20356;-85
2022/08/06 04:40:28;;;;;;;;;;;9.90;99.90;;;;;;5132772;27;19965;-85
2022/08/06 04:42:54;;;;;;;;;;;9.70;99.90;;;;;;5104447;28;19969;-84
2022/08/06 04:45:20;;;;;;;;;;;9.70;99.90;;;;;;5060749;28;19926;-85
2022/08/06 04:47:47;;;;;;;;;;;9.80;99.90;;;;;;5077997;28;20307;-85
2022/08/06 04:50:13;;;;;;;;;;;9.80;99.90;;;;;;5113387;28;20018;-84
2022/08/06 04:52:39;;;;;;;;;;;9.80;99.90;;;;;;5087689;28;20357;-85
2022/08/06 04:55:04;;;;;;;;;;;9.90;99.90;;;;;;5078839;28;19958;-87
2022/08/06 04:57:30;;;;;;;;;;;9.90;99.90;;;;;;5063942;28;19962;-84
2022/08/06 04:59:55;;;;;;;;;;;9.90;99.90;;;;;;5081104;28;19915;-84
2022/08/06 05:02:21;;;;;;;;;;;10.00;99.90;;;;;;5091340;28;19926;-84
2022/08/06 05:04:53;;;;;;;;;;;10.10;99.90;;;;;;5104963;28;19916;-84
2022/08/06 05:07:20;;;;;;;;;;;10.10;99.90;;;;;;5080009;28;20350;-85
2022/08/06 05:09:46;;;;;;;;;;;10.30;99.90;;;;;;5114625;28;20342;-85
2022/08/06 05:12:15;;;;;;;;;;;10.40;99.90;;;;;;5111211;28;19927;-85
2022/08/06 05:14:45;;;;;;;;;;;10.40;99.90;;;;;;5097415;28;19953;-84
2022/08/06 05:17:13;;;;;;;;;;;10.50;99.90;;;;;;5096647;28;19916;-85
2022/08/06 05:19:42;;;;;;;;;;;10.60;99.90;;;;;;5097860;28;19915;-85
2022/08/06 05:22:08;;;;;;;;;;;10.80;99.90;;;;;;5091856;28;19932;-86
2022/08/06 05:24:34;;;;;;;;;;;10.90;99.90;;;;;;5099835;27;19915;-85
2022/08/06 05:27:00;;;;;;;;;;;11.00;99.90;;;;;;5111175;27;20246;-85
2022/08/06 05:29:25;;;;;;;;;;;11.00;99.90;;;;;;5076430;28;19919;-85
2022/08/06 05:31:57;;;;;;;;;;;11.10;99.90;;;;;;5076526;28;19920;-87
2022/08/06 05:34:22;;;;;;;;;;;11.20;99.90;;;;;;5078690;28;20002;-84
2022/08/06 05:36:48;;;;;;;;;;;11.40;99.90;;;;;;5112492;28;19969;-85
2022/08/06 05:39:13;;;;;;;;;;;11.60;99.90;;;;;;5096273;28;19923;-84
2022/08/06 05:41:41;;;;;;;;;;;11.80;99.90;;;;;;5079931;28;19916;-85
2022/08/06 05:44:06;;;;;;;;;;;12.20;99.90;;;;;;5078308;28;19965;-84
2022/08/06 05:46:51;;;;;;;;;;;12.20;99.90;;;;;;5111340;28;20353;-85
2022/08/06 05:49:28;;;;;;;;;;;12.30;99.90;;;;;;5096544;28;20006;-85
2022/08/06 05:51:57;;;;;;;;;;;12.50;99.90;;;;;;5098794;27;20284;-85
2022/08/06 05:54:38;;;;;;;;;;;12.70;99.90;;;;;;5099808;27;19936;-85
2022/08/06 05:57:10;;;;;;;;;;;12.80;99.90;;;;;;5066107;28;19916;-85
2022/08/06 05:59:39;;;;;;;;;;;12.90;99.90;;;;;;5096449;28;19923;-85
2022/08/06 06:02:05;;;;;;;;;;;13.10;99.90;;;;;;5098965;27;19969;-85
2022/08/06 06:04:31;;;;;;;;;;;13.20;99.90;;;;;;5098331;28;19978;-85
2022/08/06 06:06:57;;;;;;;;;;;13.30;99.90;;;;;;5096221;28;20049;-85
2022/08/06 06:09:22;;;;;;;;;;;13.50;99.90;;;;;;5095795;28;19915;-85
2022/08/06 06:11:49;;;;;;;;;;;13.60;99.90;;;;;;5111755;28;19968;-85
2022/08/06 06:14:35;;;;;;;;;;;13.80;99.90;;;;;;5103095;28;19916;-89
2022/08/06 06:17:06;;;;;;;;;;;13.90;99.90;;;;;;5126746;27;20423;-84
2022/08/06 06:19:44;;;;;;;;;;;14.10;99.90;;;;;;5092093;28;19920;-85
2022/08/06 06:22:09;;;;;;;;;;;14.30;99.90;;;;;;5082322;27;19919;-85
2022/08/06 06:24:53;;;;;;;;;;;14.50;99.90;;;;;;5077903;28;20010;-84
2022/08/06 06:27:24;;;;;;;;;;;14.60;99.90;;;;;;5095717;28;20410;-85
2022/08/06 06:29:57;;;;;;;;;;;14.80;99.90;;;;;;5095991;28;19916;-85
2022/08/06 06:32:23;;;;;;;;;;;15.10;99.90;;;;;;5116190;28;19922;-86
2022/08/06 06:34:48;;;;;;;;;;;15.20;99.90;;;;;;5108081;28;19916;-86
2022/08/06 06:37:26;;;;;;;;;;;15.40;99.90;;;;;;5095965;28;20242;-85
2022/08/06 06:40:11;;;;;;;;;;;15.60;99.90;;;;;;5110618;28;19982;-86
2022/08/06 06:42:43;;;;;;;;;;;15.70;99.90;;;;;;5053949;28;20006;-86
2022/08/06 06:45:17;;;;;;;;;;;15.80;99.90;;;;;;5093580;28;20314;-86
2022/08/06 06:47:49;;;;;;;;;;;16.00;99.90;;;;;;5078767;28;20022;-86
2022/08/06 06:50:20;;;;;;;;;;;16.10;99.90;;;;;;5095707;28;20002;-86
2022/08/06 06:52:48;;;;;;;;;;;16.10;99.90;;;;;;5096130;28;20318;-86
2022/08/06 06:55:13;;;;;;;;;;;16.30;99.90;;;;;;5089359;28;19923;-86
2022/08/06 06:57:42;;;;;;;;;;;16.30;99.90;;;;;;5111165;28;19915;-86
2022/08/06 07:00:09;;;;;;;;;;;16.40;99.90;;;;;;5096919;28;19923;-86
2022/08/06 07:02:37;;;;;;;;;;;16.50;99.90;;;;;;5108189;27;19941;-88
2022/08/06 07:05:04;;;;;;;;;;;16.60;99.90;;;;;;5099293;28;19923;-85
2022/08/06 07:07:33;;;;;;;;;;;16.80;99.90;;;;;;5110942;28;20336;-86
2022/08/06 07:10:00;;;;;;;;;;;16.90;99.90;;;;;;5081947;28;19916;-86
2022/08/06 07:12:26;;;;;;;;;;;17.00;99.90;;;;;;5089961;28;19951;-86
2022/08/06 07:14:53;;;;;;;;;;;17.10;99.90;;;;;;5120508;28;19970;-86
2022/08/06 07:17:19;;;;;;;;;;;17.10;99.90;;;;;;5098296;28;19969;-86
2022/08/06 07:19:49;;;;;;;;;;;17.20;99.90;;;;;;5087344;28;20308;-91
2022/08/06 07:22:15;;;;;;;;;;;17.30;99.90;;;;;;5063098;28;19942;-88
2022/08/06 07:24:42;;;;;;;;;;;17.50;99.90;;;;;;5105037;28;19927;-89
2022/08/06 07:27:12;;;;;;;;;;;17.60;99.90;;;;;;5096613;28;19923;-88
2022/08/06 07:29:40;;;;;;;;;;;17.70;99.90;;;;;;5093204;28;20310;-89
2022/08/06 07:32:07;;;;;;;;;;;17.70;99.90;;;;;;5069580;28;20265;-90
2022/08/06 07:34:35;;;;;;;;;;;17.70;99.90;;;;;;5057482;28;20389;-90
2022/08/06 07:37:01;;;;;;;;;;;17.80;99.90;;;;;;5092952;28;19915;-93
2022/08/06 07:39:31;;;;;;;;;;;18.10;99.90;;;;;;5078433;28;19922;-89
2022/08/06 07:41:58;;;;;;;;;;;18.10;99.90;;;;;;5097145;28;19937;-91
2022/08/06 07:44:26;;;;;;;;;;;18.10;99.90;;;;;;5104544;28;19915;-94
2022/08/06 07:46:54;;;;;;;;;;;18.10;99.90;;;;;;5058972;28;19926;-88
2022/08/06 07:49:21;;;;;;;;;;;18.20;99.90;;;;;;5088357;28;20426;-90
2022/08/06 07:51:47;;;;;;;;;;;18.30;99.90;;;;;;5077651;28;20353;-92
2022/08/06 07:54:14;;;;;;;;;;;18.40;99.90;;;;;;5090931;28;19951;-87
2022/08/06 07:56:40;;;;;;;;;;;18.60;99.90;;;;;;5125652;27;19960;-87
2022/08/06 07:59:08;;;;;;;;;;;18.80;99.90;;;;;;5078782;28;19938;-89
2022/08/06 08:01:34;;;;;;;;;;;19.00;99.90;;;;;;5095703;28;19938;-87
2022/08/06 08:06:44;;;;;;;;;;;18.00;99.90;;;;;;5097702;28;19923;-87
2022/08/06 08:09:12;;;;;;;;;;;19.10;99.90;;;;;;5101299;28;19915;-87
2022/08/06 08:11:40;;;;;;;;;;;19.10;99.90;;;;;;5102510;28;19916;-87
2022/08/06 08:18:07;;;;;;;0.00;0.00;;;18.80;99.90;;;;;;5157804;27;20583;-85
2022/08/06 08:20:37;;;;;;;0.00;0.00;;;18.90;99.90;;;;;;5113646;27;20063;-92
2022/08/06 08:23:05;;;;;;;0.00;0.00;;;18.90;99.90;;;;;;5107755;27;20047;-87
2022/08/06 08:25:32;;;;;;;0.43;0.05;;;19.10;99.90;;;;;;5107349;27;20046;-91
2022/08/06 08:27:58;;;;;;;0.00;0.00;;;19.20;99.90;;;;;;5100816;27;20035;-90
2022/08/06 08:30:23;;;;;;;0.10;0.00;;;19.40;99.90;;;;;;5104669;27;20140;-88
2022/08/06 08:32:49;;;;;;;0.50;0.08;;;19.40;99.90;;;;;;5124162;27;20126;-87
2022/08/06 08:35:17;;;;;;;0.00;0.00;;;19.40;99.90;;;;;;5120288;27;20051;-85
2022/08/06 08:37:43;;;;;;;0.00;0.00;;;19.40;99.90;;;;;;5091655;27;20043;-86
2022/08/06 08:40:09;;;;;;;0.00;0.00;;;19.30;99.90;;;;;;5107720;27;20372;-87
2022/08/06 08:42:48;;;;;;;0.00;0.00;;;19.30;99.90;;;;;;5124614;27;20293;-90
2022/08/06 08:45:15;;;;;;;0.00;0.00;;;19.40;99.90;;;;;;5119626;27;20039;-87
2022/08/06 08:47:46;;;;;;;0.00;0.00;;;19.40;99.90;;;;;;5118345;27;20130;-87
2022/08/06 08:50:12;;;;;;;0.00;0.00;;;19.30;99.90;;;;;;5122114;27;20043;-87
2022/08/06 08:52:42;;;;;;;0.10;0.10;;;19.20;99.90;;;;;;5123446;27;20031;-90
2022/08/06 08:55:11;;;;;;;0.10;0.10;;;18.90;99.90;;;;;;5110731;27;20059;-86
2022/08/06 08:57:38;;;;;;;0.00;0.00;;;18.80;99.90;;;;;;5124324;27;20099;-92
2022/08/06 09:00:06;;;;;;;0.00;0.00;;;18.60;99.90;;;;;;5102826;27;20043;-86
2022/08/06 09:02:32;;;;;;;0.10;0.03;;;18.50;99.90;;;;;;5123613;27;20467;-85
2022/08/06 09:04:59;;;;;;;0.00;0.00;;;18.40;99.90;;;;;;5084437;27;20126;-86
2022/08/06 09:07:26;;;;;;;0.10;0.10;;;18.40;99.90;;;;;;5117957;27;20047;-86
2022/08/06 09:09:54;;;;;;;0.05;0.05;;;18.60;99.90;;;;;;5120765;27;20045;-86
2022/08/06 09:12:22;;;;;;;0.10;0.10;;;18.70;99.90;;;;;;5105511;27;20104;-86
2022/08/06 09:14:47;;;;;;;2.38;0.10;;;19.00;99.90;;;;;;5123271;27;20091;-86
2022/08/06 09:17:13;;;;;;;0.00;0.00;;;19.20;99.90;;;;;;5100478;27;20416;-86
2022/08/06 09:19:39;;;;;;;0.00;0.00;;;19.40;99.90;;;;;;5118159;27;20088;-93
2022/08/06 09:22:05;;;;;;;0.03;0.03;;;19.60;99.90;;;;;;5114420;27;20047;-86
2022/08/06 09:24:32;;;;;;;0.00;0.00;;;19.70;99.90;;;;;;5108495;27;20090;-88
2022/08/06 09:27:16;;;;;;;;;;;19.90;99.90;;;;;;5100284;27;20035;-85
2022/08/06 09:29:52;;;;;;;0.05;0.05;;;20.00;99.90;;;;;;5104777;27;20029;-86
2022/08/06 09:32:39;;;;;;;0.00;0.00;;;19.90;99.90;;;;;;5100283;27;20039;-85
2022/08/06 09:35:24;;;;;;;0.00;0.00;;;19.70;99.90;;;;;;5092055;27;20073;-85
2022/08/06 09:38:00;;;;;;;0.00;0.00;;;19.50;99.90;;;;;;5111163;27;20046;-86
2022/08/06 09:40:26;;;;;;;0.10;0.10;;;19.40;99.90;;;;;;5108995;27;20415;-86
2022/08/06 09:42:52;;;;;;;0.10;0.10;;;19.30;99.90;;;;;;5089853;27;20043;-87
2022/08/06 09:45:23;;;;;;;0.55;0.00;;;19.30;99.90;;;;;;5086775;27;20355;-86
2022/08/06 09:48:04;;;;;;;0.00;0.00;;;19.40;99.90;;;;;;5085321;27;20039;-87
2022/08/06 09:50:50;;;;;;;0.00;0.00;;;19.70;99.90;;;;;;5110426;28;20035;-88
2022/08/06 09:53:17;;;;;;;0.15;0.10;;;19.80;99.90;;;;;;5106470;27;20051;-86
2022/08/06 09:55:44;;;;;;;0.08;0.00;;;19.90;99.90;;;;;;5096683;27;20047;-87
2022/08/06 09:58:10;;;;;;;0.10;0.10;;;19.80;99.90;;;;;;5097915;27;20047;-87
2022/08/06 10:00:38;;;;;;;0.10;0.10;;;19.70;99.90;;;;;;5117980;27;20046;-87
2022/08/06 10:03:09;;;;;;;0.03;0.03;;;19.60;99.90;;;;;;5110522;27;20515;-87
2022/08/06 10:05:35;;;;;;;0.00;0.00;;;19.40;99.90;;;;;;5096899;27;20047;-87
2022/08/06 10:15:30;;;;;;;0.03;0.03;;;19.50;99.90;;;;;;5126663;27;20473;-89
2022/08/06 10:17:55;;;;;;;0.00;0.00;;;19.60;99.90;;;;;;5113063;27;20067;-91
2022/08/06 10:20:21;;;;;;;0.10;0.10;;;19.70;99.90;;;;;;5094984;27;20054;-91
2022/08/06 10:22:54;;;;;;;0.20;0.20;;;19.60;99.90;;;;;;5100895;27;20194;-88
2022/08/06 10:25:22;;;;;;;0.10;0.10;;;19.60;99.90;;;;;;5097673;28;20039;-88
2022/08/06 10:27:51;;;;;;;0.10;0.10;;;19.70;99.90;;;;;;5088783;27;20106;-89
2022/08/06 10:30:17;;;;;;;0.00;0.00;;;19.70;99.90;;;;;;5085854;28;20064;-88
2022/08/06 10:32:58;;;;;;;0.10;0.10;;;19.80;99.90;;;;;;5083650;28;20043;-88
2022/08/06 10:35:24;;;;;;;0.00;0.00;;;19.80;99.90;;;;;;5101256;27;20039;-89
2022/08/06 10:37:56;;;;;;;0.00;0.00;;;19.80;99.90;;;;;;5091368;27;20508;-90
2022/08/06 10:40:28;;;;;;;0.00;0.00;;;19.90;99.90;;;;;;5109013;28;20039;-96
2022/08/06 10:42:56;;;;;;;0.05;0.00;;;20.10;99.90;;;;;;5080836;28;20047;-88
2022/08/06 10:45:21;;;;;;;0.20;0.20;;;20.30;99.90;;;;;;5103220;27;20508;-88
2022/08/06 10:51:36;;;;;;;0.03;0.03;;;20.50;99.90;;;;;;5135065;27;20035;-88
2022/08/06 10:58:38;;;;;;;0.30;0.03;;;20.30;99.90;;;;;;5115036;28;20096;-87
2022/08/06 11:12:49;;;;;;;0.00;0.00;;;19.80;99.90;;;;;;5139015;27;20043;-92
2022/08/06 11:15:15;;;;;;;0.00;0.00;;;19.70;99.90;;;;;;5094945;27;20048;-89
2022/08/06 11:17:53;;;;;;;0.03;0.00;;;19.60;99.90;;;;;;5103501;28;20509;-90
2022/08/06 11:20:36;;;;;;;0.32;0.00;;;19.50;99.90;;;;;;5108760;28;20100;-90
2022/08/06 11:23:22;;;;;;;0.00;0.00;;;19.50;99.90;;;;;;5094106;28;20545;-90
2022/08/06 11:25:53;;;;;;;0.20;0.00;;;19.60;99.90;;;;;;5078461;28;20070;-91
2022/08/06 11:28:40;;;;;;;0.00;0.00;;;19.60;99.90;;;;;;5110041;28;20047;-91
2022/08/06 11:31:07;;;;;;;0.00;0.00;;;19.60;99.90;;;;;;5089292;28;20452;-90
2022/08/06 11:33:33;;;;;;;0.10;0.10;;;19.70;99.90;;;;;;5079076;28;20048;-90
2022/08/06 11:36:03;;;;;;;0.00;0.00;;;19.80;99.90;;;;;;5084753;28;20053;-90
2022/08/06 11:38:48;;;;;;;0.13;0.13;;;19.90;99.90;;;;;;5072800;28;20123;-89
2022/08/06 11:41:25;;;;;;;0.00;0.00;;;20.00;99.90;;;;;;5076679;28;20047;-88
2022/08/06 11:43:53;;;;;;;0.00;0.00;;;20.10;99.90;;;;;;5108209;28;20093;-89
2022/08/06 11:46:27;;;;;;;0.00;0.00;;;20.20;99.90;;;;;;5101366;28;20085;-93
2022/08/06 11:49:47;;;;;;;0.00;0.00;;;20.30;99.90;;;;;;5092871;28;20051;-89
2022/08/06 11:52:42;;;;;;;0.10;0.10;;;20.50;99.90;;;;;;5107118;28;20078;-88
2022/08/06 11:55:13;;;;;;;0.20;0.20;;;20.60;99.90;;;;;;5096648;28;20051;-90
2022/08/06 11:57:40;;;;;;;0.10;0.10;;;20.60;99.90;;;;;;5094962;28;20047;-87
2022/08/06 12:00:09;;;;;;;0.32;0.00;;;20.60;99.90;;;;;;5090352;28;20055;-87
2022/08/06 12:02:41;;;;;;;0.00;0.00;;;20.60;99.90;;;;;;5095067;28;20092;-87
2022/08/06 12:05:27;;;;;;;0.10;0.10;;;20.50;99.90;;;;;;5064534;28;20055;-88
2022/08/06 12:08:19;;;;;;;0.65;0.20;;;20.40;99.90;;;;;;5091280;28;20044;-87
2022/08/06 12:11:27;;;;;;;0.10;0.10;;;20.40;99.90;;;;;;5087316;28;20035;-88
2022/08/06 12:13:53;;;;;;;0.00;0.00;;;20.30;99.90;;;;;;5094520;28;20402;-87
2022/08/06 12:16:45;;;;;;;0.00;0.00;;;20.30;99.90;;;;;;5111144;28;20082;-89
2022/08/06 12:19:13;;;;;;;0.17;0.17;;;20.20;99.90;;;;;;5089664;28;20135;-88
2022/08/06 12:21:40;;;;;;;0.00;0.00;;;20.10;99.90;;;;;;5084058;28;20044;-87
2022/08/06 12:24:07;;;;;;;0.00;0.00;;;20.00;99.90;;;;;;5115651;28;20047;-88
2022/08/06 12:26:33;;;;;;;0.20;0.00;;;19.90;99.90;;;;;;5080951;28;20495;-88
2022/08/06 12:29:03;;;;;;;;;;;19.90;99.90;;;;;;5113312;28;20108;-88
2022/08/06 12:31:30;;;;;;;0.00;0.00;;;20.00;99.90;;;;;;5112555;28;19922;-90
2022/08/06 12:33:56;;;;;;;0.00;0.00;;;20.00;99.90;;;;;;5094479;28;20046;-88
2022/08/06 12:36:26;;;;;;;0.00;0.00;;;20.00;99.90;;;;;;5114481;28;20180;-88
2022/08/06 12:38:57;;;;;;;0.00;0.00;;;20.00;99.90;;;;;;5083592;28;20054;-90
2022/08/06 12:41:31;;;;;;;0.25;0.25;;;20.10;99.90;;;;;;5103708;28;20047;-91
2022/08/06 12:44:06;;;;;;;0.03;0.03;;;20.10;99.90;;;;;;5116903;28;20413;-91
2022/08/06 12:46:32;;;;;;;0.00;0.00;;;20.20;99.90;;;;;;5084221;28;20039;-91
2022/08/06 12:48:59;;;;;;;0.00;0.00;;;20.30;99.90;;;;;;5096738;28;20519;-89
2022/08/06 12:51:25;;;;;;;0.10;0.03;;;20.30;99.90;;;;;;5078676;28;20478;-88
2022/08/06 12:53:53;;;;;;;0.05;0.05;;;20.40;99.90;;;;;;5095531;28;20043;-88
2022/08/06 12:56:22;;;;;;;0.25;0.00;;;20.50;99.90;;;;;;5109601;28;20035;-87
2022/08/06 12:58:50;;;;;;;0.10;0.00;;;20.50;99.90;;;;;;5112455;28;20078;-88
2022/08/06 13:01:18;;;;;;;0.00;0.00;;;20.60;99.90;;;;;;5112562;28;20052;-89
2022/08/06 13:03:47;;;;;;;0.00;0.00;;;20.80;99.90;;;;;;5114113;28;20039;-88
2022/08/06 13:06:16;;;;;;;0.20;0.10;;;21.00;99.90;;;;;;5099053;28;20043;-93
2022/08/06 13:08:46;;;;;;;0.00;0.00;;;21.30;99.90;;;;;;5130982;27;20137;-87
2022/08/06 13:11:12;;;;;;;0.00;0.00;;;21.50;99.90;;;;;;5082003;28;20043;-89
2022/08/06 13:13:46;;;;;;;0.00;0.00;;;21.70;99.90;;;;;;5081700;28;20043;-88
2022/08/06 13:16:14;;;;;;;0.10;0.00;;;21.80;99.90;;;;;;5098513;28;20082;-89
2022/08/06 13:18:41;;;;;;;0.13;0.00;;;22.00;99.90;;;;;;5082002;28;20057;-89
2022/08/06 13:21:21;;;;;;;0.10;0.10;;;22.10;99.90;;;;;;5119001;27;20074;-89
2022/08/06 13:23:51;;;;;;;0.10;0.10;;;22.00;99.50;;;;;;5118363;27;20039;-89
2022/08/06 13:26:27;;;;;;;0.00;0.00;;;22.00;99.70;;;;;;5119253;27;20396;-90
2022/08/06 13:29:11;;;;;;;0.00;0.00;;;21.90;99.90;;;;;;5102244;27;20397;-89
2022/08/06 13:31:38;;;;;;;0.03;0.03;;;21.80;99.20;;;;;;5108892;28;20067;-88
2022/08/06 13:34:06;;;;;;;0.00;0.00;;;21.90;99.90;;;;;;5112332;27;20055;-89
2022/08/06 13:36:36;;;;;;;0.10;0.10;;;22.10;99.90;;;;;;5120047;27;20039;-89
2022/08/06 13:42:59;;;;;;;0.20;0.20;;;22.50;99.50;;;;;;5118911;27;20393;-94
2022/08/06 13:45:27;;;;;;;0.10;0.10;;;22.70;97.20;;;;;;5077988;28;20371;-89
2022/08/06 13:48:01;;;;;;;0.10;0.10;;;22.90;98.30;;;;;;5080982;28;20464;-90
2022/08/06 13:50:27;;;;;;;0.00;0.00;;;22.90;97.30;;;;;;5083235;27;20054;-92
2022/08/06 13:52:53;;;;;;;0.00;0.00;;;22.90;98.40;;;;;;5079591;27;20039;-91
2022/08/06 13:55:29;;;;;;;0.10;0.00;;;22.90;98.50;;;;;;5116962;27;20396;-95
2022/08/06 13:57:55;;;;;;;0.65;0.20;;;23.10;97.30;;;;;;5101455;27;20039;-87
2022/08/06 14:00:21;;;;;;;1.00;0.10;;;23.00;97.10;;;;;;5100411;27;20065;-89
2022/08/06 14:02:47;;;;;;;0.10;0.10;;;22.90;97.50;;;;;;5097782;28;20051;-85
2022/08/06 14:05:13;;;;;;;0.08;0.08;;;22.80;96.90;;;;;;5096498;27;20058;-88
2022/08/06 14:07:38;;;;;;;0.35;0.10;;;22.60;95.80;;;;;;5117483;27;20458;-86
2022/08/06 14:10:05;;;;;;;0.10;0.10;;;22.40;96.80;;;;;;5101379;27;20043;-86
2022/08/06 14:12:31;;;;;;;0.00;0.00;;;22.40;96.80;;;;;;5083232;27;20077;-86
2022/08/06 14:14:57;;;;;;;;;;;22.50;96.70;;;;;;5100784;27;20130;-87
2022/08/06 14:17:23;;;;;;;0.17;0.10;;;22.40;93.70;;;;;;5117210;27;19926;-89
2022/08/06 14:19:49;;;;;;;0.00;0.00;;;22.20;96.30;;;;;;5100616;27;20051;-87
2022/08/06 14:22:16;;;;;;;0.10;0.10;;;22.20;95.60;;;;;;5080268;28;20134;-87
2022/08/06 14:24:42;;;;;;;0.00;0.00;;;22.30;95.70;;;;;;5102088;27;20121;-86
2022/08/06 14:27:09;;;;;;;0.20;0.20;;;22.30;95.80;;;;;;5117390;27;20079;-87
2022/08/06 14:29:37;;;;;;;0.00;0.00;;;22.30;95.90;;;;;;5100621;27;20045;-88